Time;durP1;ratioP1;P1;durP2;ratioP2;P2;SDS_P1;SDS_P2;PMS_P1;PMS_P2;Temp;Humidity;BMP_temperature;BMP_pressure;BME280_temperature;BME280_humidity;BME280_pressure;Samples;Min_cycle;Max_cycle;Signal;HPM_P1;HPM_P2
2021/03/22 00:00:54;;;;;;;1999.90;999.90;;;4.30;97.40;;;;;;5006310;28;20045;-70
2021/03/22 00:03:22;;;;;;;1999.90;999.90;;;4.30;97.40;;;;;;5006139;28;20064;-70
2021/03/22 00:05:50;;;;;;;1999.90;999.90;;;4.20;97.40;;;;;;5008733;28;20049;-70
2021/03/22 00:08:17;;;;;;;1999.90;999.90;;;4.20;97.40;;;;;;4989189;28;20048;-70
2021/03/22 00:10:45;;;;;;;1999.90;999.90;;;4.20;97.30;;;;;;5004469;28;20059;-70
2021/03/22 00:13:13;;;;;;;1999.90;999.90;;;4.10;97.20;;;;;;4998703;28;20054;-71
2021/03/22 00:15:40;;;;;;;1999.90;999.90;;;4.10;97.20;;;;;;5003253;28;20168;-70
2021/03/22 00:18:10;;;;;;;1999.90;999.90;;;4.00;97.10;;;;;;5001925;28;20069;-71
2021/03/22 00:20:38;;;;;;;1999.90;999.90;;;4.00;97.30;;;;;;5010864;28;20058;-70
2021/03/22 00:23:05;;;;;;;1999.90;999.90;;;4.00;97.30;;;;;;5009274;28;20400;-70
2021/03/22 00:25:31;;;;;;;1999.90;999.90;;;4.00;97.30;;;;;;5010140;28;20049;-70
2021/03/22 00:27:57;;;;;;;1999.90;999.90;;;4.00;97.30;;;;;;4992222;28;20072;-70
2021/03/22 00:30:28;;;;;;;1999.90;999.90;;;3.90;97.20;;;;;;5006471;28;20764;-70
2021/03/22 00:32:55;;;;;;;1999.90;999.90;;;3.90;97.10;;;;;;4994883;28;20131;-70
2021/03/22 00:35:22;;;;;;;1999.90;999.90;;;3.80;97.10;;;;;;5010559;28;20054;-70
2021/03/22 00:37:49;;;;;;;1999.90;999.90;;;3.80;97.10;;;;;;4993415;28;20046;-70
2021/03/22 00:40:30;;;;;;;1999.90;999.90;;;3.70;97.10;;;;;;4988946;28;20047;-70
2021/03/22 00:42:57;;;;;;;1999.90;999.90;;;3.70;97.10;;;;;;5006059;28;20048;-70
2021/03/22 00:45:25;;;;;;;1999.90;999.90;;;3.70;97.10;;;;;;5013649;28;20050;-70
2021/03/22 00:47:53;;;;;;;1999.90;999.90;;;3.60;97.10;;;;;;4985834;28;20046;-70
2021/03/22 00:50:22;;;;;;;1999.90;999.90;;;3.60;97.10;;;;;;4986374;28;20061;-71
2021/03/22 00:52:49;;;;;;;1999.90;999.90;;;3.50;97.00;;;;;;4988492;28;20050;-70
2021/03/22 00:55:15;;;;;;;1999.90;999.90;;;3.50;97.10;;;;;;4996969;28;20129;-70
2021/03/22 00:57:42;;;;;;;1999.90;999.90;;;3.40;97.00;;;;;;5003392;28;20057;-70
2021/03/22 01:00:09;;;;;;;1999.90;999.90;;;3.40;97.10;;;;;;5006129;28;20054;-70
2021/03/22 01:02:36;;;;;;;1999.90;999.90;;;3.30;97.00;;;;;;5013166;28;20049;-70
2021/03/22 01:05:04;;;;;;;1999.90;999.90;;;3.30;97.10;;;;;;4989422;28;20500;-71
2021/03/22 01:07:30;;;;;;;1999.90;999.90;;;3.30;97.10;;;;;;5004329;28;20394;-70
2021/03/22 01:09:56;;;;;;;1999.90;999.90;;;3.20;97.10;;;;;;5004697;28;20042;-70
2021/03/22 01:12:23;;;;;;;1999.90;999.90;;;3.20;97.10;;;;;;5006646;28;20137;-70
2021/03/22 01:14:49;;;;;;;1999.90;999.90;;;3.20;97.20;;;;;;5005638;28;20093;-70
2021/03/22 01:17:15;;;;;;;1999.90;999.90;;;3.20;97.20;;;;;;5011452;28;20053;-70
2021/03/22 01:19:41;;;;;;;1999.90;999.90;;;3.20;97.20;;;;;;4995175;28;20042;-69
2021/03/22 01:22:08;;;;;;;1999.90;999.90;;;3.10;97.20;;;;;;5004181;28;20081;-70
2021/03/22 01:24:34;;;;;;;1999.90;999.90;;;3.10;97.10;;;;;;4991750;28;20046;-70
2021/03/22 01:27:05;;;;;;;1999.90;999.90;;;3.10;97.10;;;;;;4988994;28;20125;-70
2021/03/22 01:29:35;;;;;;;1999.90;999.90;;;3.00;97.00;;;;;;5011309;28;20052;-70
2021/03/22 01:32:06;;;;;;;1999.90;999.90;;;3.00;97.10;;;;;;4999285;28;20046;-70
2021/03/22 01:34:33;;;;;;;1999.90;999.90;;;3.00;97.10;;;;;;5010728;28;20056;-70
2021/03/22 01:36:59;;;;;;;1999.90;999.90;;;2.90;97.00;;;;;;5010152;28;20057;-70
2021/03/22 01:39:33;;;;;;;1999.90;999.90;;;2.90;97.00;;;;;;5003746;28;20060;-70
2021/03/22 01:42:28;;;;;;;1999.90;999.90;;;2.90;97.10;;;;;;5009518;28;20041;-70
2021/03/22 01:45:05;;;;;;;1999.90;999.90;;;2.80;97.00;;;;;;4998496;28;20046;-70
2021/03/22 01:47:35;;;;;;;1999.90;999.90;;;2.90;97.10;;;;;;4989859;28;20095;-70
2021/03/22 01:50:21;;;;;;;1999.90;999.90;;;2.80;97.00;;;;;;5018097;28;20044;-70
2021/03/22 01:52:49;;;;;;;1999.90;999.90;;;2.80;97.00;;;;;;5011213;28;20046;-70
2021/03/22 01:55:19;;;;;;;1999.90;999.90;;;2.80;97.00;;;;;;4989008;28;20052;-70
2021/03/22 01:57:46;;;;;;;1999.90;999.90;;;2.70;96.90;;;;;;4991194;28;20049;-70
2021/03/22 02:00:27;;;;;;;1999.90;999.90;;;2.70;96.90;;;;;;5004816;28;20448;-70
2021/03/22 02:03:16;;;;;;;1999.90;999.90;;;2.70;97.00;;;;;;4993911;28;20121;-70
2021/03/22 02:05:46;;;;;;;1999.90;999.90;;;2.60;96.90;;;;;;5011685;28;20418;-69
2021/03/22 02:08:20;;;;;;;1999.90;999.90;;;2.70;96.90;;;;;;5012015;28;20146;-70
2021/03/22 02:10:46;;;;;;;1999.90;999.90;;;2.70;97.00;;;;;;5019255;28;20080;-70
2021/03/22 02:13:16;;;;;;;1999.90;999.90;;;2.70;97.00;;;;;;4996096;28;20053;-70
2021/03/22 02:15:44;;;;;;;1999.90;999.90;;;2.70;97.00;;;;;;5013625;28;20057;-70
2021/03/22 02:18:26;;;;;;;1999.90;999.90;;;2.80;97.10;;;;;;5010008;28;20045;-70
2021/03/22 02:21:26;;;;;;;1999.90;999.90;;;2.90;97.30;;;;;;5086429;27;20049;-70
2021/03/22 02:24:20;;;;;;;1999.90;999.90;;;3.00;97.30;;;;;;5008078;28;20050;-70
2021/03/22 02:27:24;;;;;;;1999.90;999.90;;;3.00;97.30;;;;;;5009516;28;20081;-70
2021/03/22 02:30:13;;;;;;;1999.90;999.90;;;3.10;97.50;;;;;;5009842;28;20050;-70
2021/03/22 02:33:21;;;;;;;1999.90;999.90;;;3.20;97.70;;;;;;5009263;28;20137;-70
2021/03/22 02:35:59;;;;;;;1999.90;999.90;;;3.30;97.90;;;;;;5009762;28;20776;-70
2021/03/22 02:38:33;;;;;;;1999.90;999.90;;;3.30;97.90;;;;;;5011729;28;20046;-70
2021/03/22 02:41:09;;;;;;;1999.90;999.90;;;3.40;98.00;;;;;;5008973;28;20046;-70
2021/03/22 02:43:37;;;;;;;1999.90;999.90;;;3.50;98.10;;;;;;4998986;28;20055;-70
2021/03/22 02:46:05;;;;;;;1999.90;999.90;;;3.60;98.10;;;;;;5005762;28;20046;-70
2021/03/22 02:48:33;;;;;;;1999.90;999.90;;;3.60;98.20;;;;;;5015115;28;20046;-70
2021/03/22 02:51:40;;;;;;;1999.90;999.90;;;3.70;98.30;;;;;;5007186;28;20088;-70
2021/03/22 02:54:34;;;;;;;1999.90;999.90;;;3.80;98.50;;;;;;4995540;28;20050;-70
2021/03/22 02:57:10;;;;;;;1999.90;999.90;;;3.90;98.50;;;;;;4964980;28;20639;-70
2021/03/22 03:00:01;;;;;;;1999.90;999.90;;;4.00;98.60;;;;;;4967437;28;20161;-71
2021/03/22 03:02:30;;;;;;;1999.90;999.90;;;4.10;98.70;;;;;;4971293;28;20055;-70
2021/03/22 03:04:56;;;;;;;;;;;4.10;98.90;;;;;;4975944;28;20099;-70
2021/03/22 03:07:25;;;;;;;1999.90;999.90;;;4.20;99.40;;;;;;4968187;28;19944;-70
2021/03/22 03:09:52;;;;;;;1999.90;999.90;;;4.20;98.90;;;;;;4973558;28;20119;-70
2021/03/22 03:12:22;;;;;;;1999.90;999.90;;;4.30;98.90;;;;;;5059373;28;20134;-70
2021/03/22 03:14:52;;;;;;;1999.90;999.90;;;4.30;98.80;;;;;;4976754;28;20065;-70
2021/03/22 03:17:19;;;;;;;1999.90;999.90;;;4.40;98.90;;;;;;4972294;28;20485;-70
2021/03/22 03:19:49;;;;;;;1999.90;999.90;;;4.40;98.90;;;;;;4966465;28;20367;-70
2021/03/22 03:22:16;;;;;;;1999.90;999.90;;;4.40;98.90;;;;;;4968707;28;20057;-70
2021/03/22 03:24:42;;;;;;;1999.90;999.90;;;4.40;99.00;;;;;;4974067;28;20430;-70
2021/03/22 03:27:09;;;;;;;1999.90;999.90;;;4.40;99.00;;;;;;4970993;28;20128;-70
2021/03/22 03:29:36;;;;;;;1999.90;999.90;;;4.50;99.20;;;;;;4969316;28;20444;-70
2021/03/22 03:32:09;;;;;;;1999.90;999.90;;;4.50;99.20;;;;;;4971424;28;20508;-70
2021/03/22 03:34:36;;;;;;;1999.90;999.90;;;4.50;99.30;;;;;;4968203;28;20047;-70
2021/03/22 03:37:03;;;;;;;1999.90;999.90;;;4.60;99.40;;;;;;4960829;28;20138;-70
2021/03/22 03:39:29;;;;;;;1999.90;999.90;;;4.60;99.40;;;;;;4971762;28;20078;-70
2021/03/22 03:41:56;;;;;;;1999.90;999.90;;;4.60;99.40;;;;;;4965465;28;20537;-70
2021/03/22 03:44:22;;;;;;;1999.90;999.90;;;4.60;99.40;;;;;;4966691;28;20070;-70
2021/03/22 03:46:48;;;;;;;1999.90;999.90;;;4.70;99.60;;;;;;4972595;28;20061;-70
2021/03/22 03:49:15;;;;;;;1999.90;999.90;;;4.70;99.60;;;;;;4964069;28;20057;-70
2021/03/22 03:51:41;;;;;;;1999.90;999.90;;;4.70;99.50;;;;;;4976841;28;20770;-70
2021/03/22 03:54:10;;;;;;;1999.90;999.90;;;4.80;99.60;;;;;;4990754;28;20046;-70
2021/03/22 03:56:37;;;;;;;1999.90;999.90;;;4.80;99.70;;;;;;5006408;28;20056;-70
2021/03/22 03:59:04;;;;;;;1999.90;999.90;;;4.80;99.80;;;;;;5007281;28;20297;-70
2021/03/22 04:01:32;;;;;;;1999.90;999.90;;;4.80;99.90;;;;;;4987227;28;20074;-70
2021/03/22 04:03:58;;;;;;;1999.90;999.90;;;4.90;99.90;;;;;;4990276;28;20130;-70
2021/03/22 04:06:27;;;;;;;1999.90;999.90;;;4.90;99.90;;;;;;5003087;28;20401;-70
2021/03/22 04:09:09;;;;;;;1999.90;999.90;;;4.90;99.90;;;;;;4986236;28;20056;-70
2021/03/22 04:11:43;;;;;;;1999.90;999.90;;;4.90;99.90;;;;;;5004401;28;20458;-70
2021/03/22 04:14:21;;;;;;;1999.90;999.90;;;5.00;99.90;;;;;;4998482;28;20054;-70
2021/03/22 04:16:47;;;;;;;1999.90;999.90;;;5.00;99.90;;;;;;5004859;28;20052;-70
2021/03/22 04:19:15;;;;;;;1999.90;999.90;;;5.00;99.90;;;;;;5005133;28;20416;-70
2021/03/22 04:21:43;;;;;;;1999.90;999.90;;;5.00;99.90;;;;;;5003740;28;20072;-70
2021/03/22 04:24:10;;;;;;;1999.90;999.90;;;5.00;99.90;;;;;;5010959;28;20072;-70
2021/03/22 04:26:36;;;;;;;1999.90;999.90;;;5.10;99.90;;;;;;5006464;28;20042;-70
2021/03/22 04:29:03;;;;;;;1999.90;999.90;;;5.10;99.90;;;;;;4995424;28;20053;-70
2021/03/22 04:31:30;;;;;;;1999.90;999.90;;;5.10;99.90;;;;;;4993282;28;20128;-70
2021/03/22 04:33:57;;;;;;;1999.90;999.90;;;5.10;99.90;;;;;;5020753;28;20522;-69
2021/03/22 04:36:30;;;;;;;1999.90;999.90;;;5.10;99.90;;;;;;5003589;28;20404;-70
2021/03/22 04:38:57;;;;;;;1999.90;999.90;;;5.20;99.90;;;;;;5000470;28;20064;-70
2021/03/22 04:41:24;;;;;;;1999.90;999.90;;;5.20;99.90;;;;;;4995976;28;20070;-70
2021/03/22 04:43:51;;;;;;;1999.90;999.90;;;5.20;99.90;;;;;;4978461;28;20180;-70
2021/03/22 04:46:17;;;;;;;1999.90;999.90;;;5.20;99.90;;;;;;4983271;28;20060;-70
2021/03/22 04:48:58;;;;;;;1999.90;999.90;;;5.20;99.90;;;;;;4985869;28;20053;-70
2021/03/22 04:51:24;;;;;;;1999.90;999.90;;;5.20;99.90;;;;;;4997184;28;20065;-70
2021/03/22 04:53:51;;;;;;;1999.90;999.90;;;5.20;99.90;;;;;;4998809;28;20080;-70
2021/03/22 04:56:19;;;;;;;1999.90;999.90;;;5.20;99.90;;;;;;4981817;28;20058;-70
2021/03/22 04:58:45;;;;;;;1999.90;999.90;;;5.30;99.90;;;;;;4980909;28;20062;-70
2021/03/22 05:01:12;;;;;;;1999.90;999.90;;;5.30;99.90;;;;;;5000023;28;20060;-70
2021/03/22 05:03:39;;;;;;;1999.90;999.90;;;5.30;99.90;;;;;;4979767;28;20055;-70
2021/03/22 05:06:06;;;;;;;1999.90;999.90;;;5.30;99.90;;;;;;4984190;28;20446;-70
2021/03/22 05:08:32;;;;;;;1999.90;999.90;;;5.30;99.90;;;;;;5000559;28;20509;-70
2021/03/22 05:11:00;;;;;;;1999.90;999.90;;;5.30;99.90;;;;;;5000521;28;20706;-70
2021/03/22 05:13:27;;;;;;;1999.90;999.90;;;5.30;99.90;;;;;;5004863;28;20388;-70
2021/03/22 05:15:54;;;;;;;1999.90;999.90;;;5.30;99.90;;;;;;5087435;27;20061;-70
2021/03/22 05:18:23;;;;;;;1999.90;999.90;;;5.40;99.90;;;;;;4986952;28;20072;-70
2021/03/22 05:20:53;;;;;;;1999.90;999.90;;;5.40;99.90;;;;;;4983484;28;20073;-71
2021/03/22 05:23:22;;;;;;;1999.90;999.90;;;5.40;99.90;;;;;;5004521;28;20049;-70
2021/03/22 05:25:50;;;;;;;1999.90;999.90;;;5.40;99.90;;;;;;5083732;27;20380;-70
2021/03/22 05:28:19;;;;;;;1999.90;999.90;;;5.40;99.90;;;;;;5004082;28;20043;-70
2021/03/22 05:30:46;;;;;;;1999.90;999.90;;;5.40;99.90;;;;;;5002435;28;20481;-70
2021/03/22 05:33:14;;;;;;;1999.90;999.90;;;5.40;99.90;;;;;;4985219;28;20489;-70
2021/03/22 05:35:42;;;;;;;1999.90;999.90;;;5.40;99.90;;;;;;4985832;28;20054;-71
2021/03/22 05:38:10;;;;;;;1999.90;999.90;;;5.40;99.90;;;;;;5011487;28;20084;-70
2021/03/22 05:40:41;;;;;;;1999.90;999.90;;;5.40;99.90;;;;;;4984694;28;20073;-70
2021/03/22 05:43:26;;;;;;;1999.90;999.90;;;5.40;99.90;;;;;;5090627;27;20468;-70
2021/03/22 05:46:23;;;;;;;1999.90;999.90;;;5.40;99.90;;;;;;5086135;28;20163;-70
2021/03/22 05:49:01;;;;;;;1999.90;999.90;;;5.50;99.90;;;;;;5001656;28;20046;-70
2021/03/22 05:51:33;;;;;;;1999.90;999.90;;;5.50;99.90;;;;;;5006910;28;20049;-70
2021/03/22 05:54:28;;;;;;;1999.90;999.90;;;5.50;99.90;;;;;;5004576;28;20220;-70
2021/03/22 05:57:13;;;;;;;1999.90;999.90;;;5.50;99.90;;;;;;5090388;27;20053;-70
2021/03/22 06:00:00;;;;;;;1999.90;999.90;;;5.50;99.90;;;;;;5008744;28;20052;-70
2021/03/22 06:02:44;;;;;;;1999.90;999.90;;;5.50;99.90;;;;;;5005336;28;20053;-70
2021/03/22 06:05:47;;;;;;;1999.90;999.90;;;5.50;99.90;;;;;;5003677;28;20567;-70
2021/03/22 06:08:28;;;;;;;1999.90;999.90;;;5.50;99.90;;;;;;4991002;28;20049;-70
2021/03/22 06:10:55;;;;;;;1999.90;999.90;;;5.50;99.90;;;;;;4991400;28;20516;-70
2021/03/22 06:13:43;;;;;;;1999.90;999.90;;;5.50;99.90;;;;;;5012938;28;20066;-70
2021/03/22 06:16:36;;;;;;;1999.90;999.90;;;5.50;99.90;;;;;;4989615;28;20050;-70
2021/03/22 06:19:15;;;;;;;1999.90;999.90;;;5.60;99.90;;;;;;4991488;28;20065;-70
2021/03/22 06:21:47;;;;;;;1999.90;999.90;;;5.60;99.90;;;;;;4991394;28;20417;-70
2021/03/22 06:24:16;;;;;;;1999.90;999.90;;;5.60;99.90;;;;;;5014224;28;20145;-71
2021/03/22 06:26:44;;;;;;;;;;;5.60;99.90;;;;;;4993438;28;20045;-70
2021/03/22 06:29:47;;;;;;;1999.90;999.90;;;5.60;99.90;;;;;;4992662;28;20351;-70
2021/03/22 06:32:21;;;;;;;1999.90;999.90;;;5.70;99.90;;;;;;5087846;27;20049;-70
2021/03/22 06:34:55;;;;;;;1999.90;999.90;;;5.70;99.90;;;;;;5007588;28;20045;-71
2021/03/22 06:37:32;;;;;;;1999.90;999.90;;;5.80;99.90;;;;;;5012888;28;20049;-70
2021/03/22 06:40:14;;;;;;;1999.90;999.90;;;5.80;99.90;;;;;;5001376;28;20369;-70
2021/03/22 06:42:42;;;;;;;1999.90;999.90;;;5.80;99.90;;;;;;5013677;28;20084;-70
2021/03/22 06:45:27;;;;;;;;;;;5.80;99.90;;;;;;5008107;28;20054;-70
2021/03/22 06:48:17;;;;;;;1999.90;999.90;;;5.90;99.90;;;;;;4988149;28;19926;-70
2021/03/22 06:50:45;;;;;;;1999.90;999.90;;;5.90;99.90;;;;;;5080040;27;20520;-71
2021/03/22 06:53:33;;;;;;;1999.90;999.90;;;5.90;99.90;;;;;;4991926;28;20439;-70
2021/03/22 06:56:23;;;;;;;1999.90;999.90;;;6.00;99.90;;;;;;5000818;28;20060;-71
2021/03/22 06:59:11;;;;;;;1999.90;999.90;;;6.00;99.90;;;;;;5000637;28;20047;-71
2021/03/22 07:01:39;;;;;;;1999.90;999.90;;;6.00;99.90;;;;;;4996518;28;20054;-70
2021/03/22 07:04:29;;;;;;;1999.90;999.90;;;6.10;99.90;;;;;;4987555;28;20050;-70
2021/03/22 07:07:09;;;;;;;1999.90;999.90;;;6.10;99.90;;;;;;4995073;28;20046;-70
2021/03/22 07:09:41;;;;;;;1999.90;999.90;;;6.10;99.90;;;;;;5079670;27;20474;-71
2021/03/22 07:12:18;;;;;;;1999.90;999.90;;;6.10;99.90;;;;;;4997495;28;20045;-70
2021/03/22 07:14:44;;;;;;;1999.90;999.90;;;6.20;99.90;;;;;;4964996;28;20046;-70
2021/03/22 07:17:22;;;;;;;1999.90;999.90;;;6.20;99.90;;;;;;5006305;28;20038;-70
2021/03/22 07:20:05;;;;;;;1999.90;999.90;;;6.20;99.90;;;;;;5003649;28;20046;-70
2021/03/22 07:22:33;;;;;;;1999.90;999.90;;;6.20;99.90;;;;;;5008136;28;20050;-71
2021/03/22 07:25:07;;;;;;;1999.90;999.90;;;6.20;99.90;;;;;;5010178;28;20155;-70
2021/03/22 07:27:51;;;;;;;1999.90;999.90;;;6.30;99.90;;;;;;5002853;28;20046;-70
2021/03/22 07:30:27;;;;;;;1999.90;999.90;;;6.30;99.90;;;;;;5003164;28;20047;-70
2021/03/22 07:33:05;;;;;;;1999.90;999.90;;;6.40;99.90;;;;;;5004656;28;20046;-70
2021/03/22 07:36:03;;;;;;;1999.90;999.90;;;6.50;99.90;;;;;;5001567;28;20416;-70
2021/03/22 07:38:48;;;;;;;1999.90;999.90;;;6.60;99.90;;;;;;5003315;28;20038;-72
2021/03/22 07:41:26;;;;;;;1999.90;999.90;;;6.70;99.90;;;;;;5005048;28;20388;-70
2021/03/22 07:44:22;;;;;;;1999.90;999.90;;;6.70;99.90;;;;;;5006534;28;20041;-70
2021/03/22 07:46:51;;;;;;;1999.90;999.90;;;6.80;99.90;;;;;;5005416;28;20056;-70
2021/03/22 07:49:32;;;;;;;1999.90;999.90;;;6.90;99.90;;;;;;4990437;28;20060;-71
2021/03/22 07:52:32;;;;;;;1999.90;999.90;;;6.90;99.90;;;;;;5011933;28;20049;-70
2021/03/22 07:55:22;;;;;;;1999.90;999.90;;;6.90;99.90;;;;;;4992172;28;20451;-71
2021/03/22 07:57:51;;;;;;;1999.90;999.90;;;6.90;99.90;;;;;;5008930;28;20068;-70
2021/03/22 08:00:20;;;;;;;;;;;7.00;99.90;;;;;;5005075;28;20129;-71
2021/03/22 08:03:17;;;;;;;1999.90;999.90;;;7.00;99.90;;;;;;5010655;28;19929;-70
2021/03/22 08:06:07;;;;;;;1999.90;999.90;;;7.10;99.90;;;;;;4978905;28;20056;-71
2021/03/22 08:08:45;;;;;;;1999.90;999.90;;;7.40;99.90;;;;;;5004167;28;20485;-70
2021/03/22 08:11:21;;;;;;;1999.90;999.90;;;7.50;99.90;;;;;;4998943;28;20049;-70
2021/03/22 08:14:30;;;;;;;1999.90;999.90;;;7.60;99.90;;;;;;5007983;28;20054;-69
2021/03/22 08:17:11;;;;;;;1999.90;999.90;;;7.60;99.90;;;;;;5002392;28;20134;-70
2021/03/22 08:19:57;;;;;;;1999.90;999.90;;;7.60;99.90;;;;;;4989103;28;20066;-70
2021/03/22 08:22:40;;;;;;;1999.90;999.90;;;7.60;99.90;;;;;;5003839;28;20050;-70
2021/03/22 08:25:23;;;;;;;1999.90;999.90;;;7.70;99.90;;;;;;5006414;28;20125;-70
2021/03/22 08:27:56;;;;;;;1999.90;999.90;;;7.70;99.90;;;;;;5004552;28;20134;-70
2021/03/22 08:30:44;;;;;;;1999.90;999.90;;;7.70;99.90;;;;;;5004716;28;20074;-70
2021/03/22 08:33:23;;;;;;;1999.90;999.90;;;7.70;99.90;;;;;;4987022;28;20482;-70
2021/03/22 08:36:17;;;;;;;1999.90;999.90;;;7.70;99.90;;;;;;5006357;28;20094;-70
2021/03/22 08:38:43;;;;;;;1999.90;999.90;;;7.70;99.90;;;;;;5002668;28;20049;-70
2021/03/22 08:41:34;;;;;;;1999.90;999.90;;;7.70;99.90;;;;;;5001596;28;20062;-70
2021/03/22 08:44:13;;;;;;;1999.90;999.90;;;7.90;99.90;;;;;;4983548;28;20144;-70
2021/03/22 08:46:47;;;;;;;1999.90;999.90;;;8.00;99.90;;;;;;5008238;28;20041;-71
2021/03/22 08:49:46;;;;;;;1999.90;999.90;;;8.10;99.90;;;;;;5011104;28;20111;-70
2021/03/22 08:52:38;;;;;;;1999.90;999.90;;;8.20;99.90;;;;;;5010521;28;20042;-70
2021/03/22 08:55:10;;;;;;;1999.90;999.90;;;8.40;99.90;;;;;;5020194;28;20044;-70
2021/03/22 08:57:55;;;;;;;1999.90;999.90;;;8.60;99.90;;;;;;4987937;28;20054;-70
2021/03/22 09:00:28;;;;;;;1999.90;999.90;;;8.60;99.90;;;;;;4987664;28;20134;-70
2021/03/22 09:02:56;;;;;;;1999.90;999.90;;;8.70;99.90;;;;;;5006085;28;20046;-70
2021/03/22 09:05:25;;;;;;;;;;;8.90;99.90;;;;;;5013611;28;20471;-70
2021/03/22 09:07:51;;;;;;;1999.90;999.90;;;9.20;99.90;;;;;;5003831;28;19933;-70
2021/03/22 09:10:36;;;;;;;1999.90;999.90;;;9.50;99.90;;;;;;4994301;28;20049;-70
2021/03/22 09:13:17;;;;;;;1999.90;999.90;;;9.60;99.90;;;;;;5015169;28;20081;-70
2021/03/22 09:15:58;;;;;;;1999.90;999.90;;;9.60;99.90;;;;;;4994306;28;20052;-71
2021/03/22 09:18:24;;;;;;;1999.90;999.90;;;9.50;99.90;;;;;;4989761;28;20053;-70
2021/03/22 09:21:05;;;;;;;1999.90;999.90;;;9.30;99.90;;;;;;4988139;28;20473;-70
2021/03/22 09:23:31;;;;;;;1999.90;999.90;;;9.10;99.90;;;;;;5006180;28;20461;-71
2021/03/22 09:26:09;;;;;;;1999.90;999.90;;;9.00;99.90;;;;;;4994277;28;20164;-70
2021/03/22 09:28:59;;;;;;;1999.90;999.90;;;9.00;99.90;;;;;;5002540;28;20049;-71
2021/03/22 09:31:34;;;;;;;1999.90;999.90;;;9.30;99.90;;;;;;5007885;28;20045;-70
2021/03/22 09:34:05;;;;;;;1999.90;999.90;;;9.50;99.90;;;;;;5003042;28;20058;-70
2021/03/22 09:36:39;;;;;;;1999.90;999.90;;;9.60;99.90;;;;;;4990081;28;20170;-71
2021/03/22 09:39:14;;;;;;;1999.90;999.90;;;9.70;99.90;;;;;;5003336;28;20090;-71
2021/03/22 09:41:55;;;;;;;1999.90;999.90;;;9.70;99.90;;;;;;5004261;28;20058;-70
2021/03/22 09:44:26;;;;;;;1999.90;999.90;;;9.70;99.90;;;;;;5005029;28;20060;-70
2021/03/22 09:47:04;;;;;;;1999.90;999.90;;;9.70;99.90;;;;;;5007487;28;20163;-70
2021/03/22 09:50:09;;;;;;;1999.90;999.90;;;9.60;99.90;;;;;;5005538;28;20687;-71
2021/03/22 09:53:24;;;;;;;1999.90;999.90;;;9.50;99.90;;;;;;5008923;28;20129;-70
2021/03/22 09:55:51;;;;;;;1999.90;999.90;;;9.30;99.90;;;;;;4996969;28;20050;-70
2021/03/22 09:58:26;;;;;;;1999.90;999.90;;;9.20;99.90;;;;;;5008006;28;20050;-70
2021/03/22 10:01:03;;;;;;;1999.90;999.90;;;9.10;99.90;;;;;;5008162;28;20133;-70
2021/03/22 10:03:34;;;;;;;1999.90;999.90;;;9.10;99.90;;;;;;5003024;28;20070;-70
2021/03/22 10:06:26;;;;;;;1999.90;999.90;;;9.10;99.90;;;;;;5006114;28;20050;-71
2021/03/22 10:08:53;;;;;;;1999.90;999.90;;;9.10;99.90;;;;;;5005908;28;20532;-71
2021/03/22 10:11:36;;;;;;;1999.90;999.90;;;9.10;99.90;;;;;;5005213;28;20038;-70
2021/03/22 10:14:05;;;;;;;1999.90;999.90;;;9.20;99.90;;;;;;4990883;28;20090;-70
2021/03/22 10:16:40;;;;;;;1999.90;999.90;;;9.30;99.90;;;;;;5006470;28;20046;-70
2021/03/22 10:19:17;;;;;;;1999.90;999.90;;;9.50;99.90;;;;;;5007073;28;20469;-71
2021/03/22 10:21:49;;;;;;;1999.90;999.90;;;9.80;99.90;;;;;;5007149;28;20070;-70
2021/03/22 10:24:41;;;;;;;1999.90;999.90;;;9.90;99.90;;;;;;5002768;28;20050;-71
2021/03/22 10:27:31;;;;;;;1999.90;999.90;;;10.00;99.90;;;;;;4994382;28;20066;-70
2021/03/22 10:30:24;;;;;;;1999.90;999.90;;;9.90;99.90;;;;;;5012392;28;20077;-70
2021/03/22 10:33:06;;;;;;;1999.90;999.90;;;9.90;99.90;;;;;;4993710;28;20050;-70
2021/03/22 10:35:46;;;;;;;1999.90;999.90;;;9.80;99.90;;;;;;5007570;28;20457;-70
2021/03/22 10:38:21;;;;;;;1999.90;999.90;;;9.70;99.90;;;;;;5007150;28;20089;-70
2021/03/22 10:40:47;;;;;;;1999.90;999.90;;;9.60;99.90;;;;;;5008257;28;20549;-71
2021/03/22 10:43:30;;;;;;;1999.90;999.90;;;9.60;99.90;;;;;;4990656;28;20510;-71
2021/03/22 10:46:18;;;;;;;1999.90;999.90;;;9.50;99.90;;;;;;5008916;28;20129;-69
2021/03/22 10:48:46;;;;;;;1999.90;999.90;;;9.40;99.90;;;;;;5011782;28;20058;-70
2021/03/22 10:51:18;;;;;;;1999.90;999.90;;;9.40;99.90;;;;;;5002715;28;20050;-70
2021/03/22 10:54:03;;;;;;;1999.90;999.90;;;9.40;99.90;;;;;;5008640;28;20297;-70
2021/03/22 10:56:57;;;;;;;1999.90;999.90;;;9.40;99.90;;;;;;5006635;28;20451;-70
2021/03/22 10:59:31;;;;;;;1999.90;999.90;;;9.40;99.90;;;;;;5005284;28;20233;-70
2021/03/22 11:02:01;;;;;;;1999.90;999.90;;;9.40;99.90;;;;;;5002384;28;20073;-70
2021/03/22 11:04:35;;;;;;;1999.90;999.90;;;9.50;99.90;;;;;;5004971;28;20082;-70
2021/03/22 11:07:14;;;;;;;1999.90;999.90;;;9.50;99.90;;;;;;4982708;28;20060;-71
2021/03/22 11:09:59;;;;;;;1999.90;999.90;;;9.50;99.90;;;;;;4993074;28;20046;-71
2021/03/22 11:12:30;;;;;;;1999.90;999.90;;;9.60;99.90;;;;;;5002804;28;20046;-70
2021/03/22 11:15:22;;;;;;;1999.90;999.90;;;9.60;99.90;;;;;;4989188;28;20082;-70
2021/03/22 11:17:50;;;;;;;1999.90;999.90;;;9.60;99.90;;;;;;4978568;28;20060;-71
2021/03/22 11:20:18;;;;;;;1999.90;999.90;;;9.60;99.90;;;;;;5000903;28;20132;-71
2021/03/22 11:22:47;;;;;;;1999.90;999.90;;;9.60;99.90;;;;;;5005082;28;20050;-70
2021/03/22 11:25:29;;;;;;;1999.90;999.90;;;9.70;99.90;;;;;;5010454;28;20050;-70
2021/03/22 11:28:00;;;;;;;1999.90;999.90;;;9.70;99.90;;;;;;5008390;28;20140;-71
2021/03/22 11:30:57;;;;;;;1999.90;999.90;;;9.60;99.90;;;;;;4982952;28;20112;-70
2021/03/22 11:33:34;;;;;;;1999.90;999.90;;;9.70;99.90;;;;;;5005698;28;20045;-71
2021/03/22 11:36:29;;;;;;;1999.90;999.90;;;9.70;99.90;;;;;;5007044;28;20057;-70
2021/03/22 11:38:59;;;;;;;1999.90;999.90;;;9.70;99.90;;;;;;5011214;28;20508;-70
2021/03/22 11:41:38;;;;;;;1999.90;999.90;;;9.70;99.90;;;;;;5002394;28;20050;-71
2021/03/22 11:44:16;;;;;;;1999.90;999.90;;;9.70;99.90;;;;;;5007023;28;20389;-71
2021/03/22 11:46:46;;;;;;;1999.90;999.90;;;9.80;99.90;;;;;;4990379;28;20053;-70
2021/03/22 11:49:39;;;;;;;1999.90;999.90;;;9.80;99.90;;;;;;5008068;28;20052;-70
2021/03/22 11:52:29;;;;;;;1999.90;999.90;;;9.80;99.90;;;;;;5003445;28;20176;-71
2021/03/22 11:55:04;;;;;;;1999.90;999.90;;;9.80;99.90;;;;;;5002643;28;20054;-69
2021/03/22 11:57:50;;;;;;;1999.90;999.90;;;9.80;99.90;;;;;;5006939;28;20145;-71
2021/03/22 12:00:19;;;;;;;1999.90;999.90;;;9.80;99.90;;;;;;5010199;28;20050;-70
2021/03/22 12:02:53;;;;;;;;;;;9.80;99.90;;;;;;5014518;28;20437;-71
2021/03/22 12:05:28;;;;;;;1999.90;999.90;;;9.80;99.90;;;;;;5004963;28;19929;-71
2021/03/22 12:07:54;;;;;;;1999.90;999.90;;;9.90;99.90;;;;;;5003193;28;20120;-71
2021/03/22 12:10:30;;;;;;;1999.90;999.90;;;10.00;99.90;;;;;;5009695;28;20050;-71
2021/03/22 12:12:59;;;;;;;1999.90;999.90;;;10.10;99.90;;;;;;5010959;28;20144;-71
2021/03/22 12:15:26;;;;;;;1999.90;999.90;;;10.20;99.90;;;;;;5005934;28;20525;-71
2021/03/22 12:18:07;;;;;;;1999.90;999.90;;;10.30;99.90;;;;;;5001819;28;20047;-71
2021/03/22 12:20:35;;;;;;;1999.90;999.90;;;10.30;99.90;;;;;;5002772;28;20414;-71
2021/03/22 12:23:03;;;;;;;1999.90;999.90;;;10.30;99.90;;;;;;5004628;28;20077;-71
2021/03/22 12:25:31;;;;;;;1999.90;999.90;;;10.30;99.90;;;;;;5008315;28;20050;-71
2021/03/22 12:27:58;;;;;;;1999.90;999.90;;;10.30;99.90;;;;;;4994772;28;20065;-71
2021/03/22 12:30:27;;;;;;;1999.90;999.90;;;10.20;99.90;;;;;;4988204;28;20045;-70
2021/03/22 12:32:53;;;;;;;;;;;10.10;99.90;;;;;;4985476;28;20156;-71
2021/03/22 12:35:32;;;;;;;1999.90;999.90;;;10.00;99.90;;;;;;5004531;28;19961;-71
2021/03/22 12:37:58;;;;;;;1999.90;999.90;;;9.90;99.90;;;;;;5011964;28;20065;-71
2021/03/22 12:40:25;;;;;;;1999.90;999.90;;;9.90;99.90;;;;;;4989410;28;20079;-71
2021/03/22 12:42:54;;;;;;;1999.90;999.90;;;9.80;99.90;;;;;;5006210;28;20129;-72
2021/03/22 12:45:28;;;;;;;1999.90;999.90;;;9.70;99.90;;;;;;5006419;28;20049;-71
2021/03/22 12:47:55;;;;;;;1999.90;999.90;;;9.60;99.90;;;;;;5011586;28;20050;-71
2021/03/22 12:50:28;;;;;;;1999.90;999.90;;;9.60;99.90;;;;;;4990052;28;20050;-71